sensor_id;sensor_type;location;lat;lon;timestamp;pressure;altitude;pressure_sealevel;temperature;humidity
70976;BME280;58635;51.198;6.010;2024-01-25T00:01:11;102637.38;;;12.11;60.51
70976;BME280;58635;51.198;6.010;2024-01-25T00:03:37;102643.53;;;12.10;60.60
70976;BME280;58635;51.198;6.010;2024-01-25T00:06:02;102640.94;;;12.10;60.39
70976;BME280;58635;51.198;6.010;2024-01-25T00:08:28;102642.72;;;12.09;60.38
70976;BME280;58635;51.198;6.010;2024-01-25T00:10:53;102640.13;;;12.09;60.62
70976;BME280;58635;51.198;6.010;2024-01-25T00:13:18;102649.53;;;12.10;60.45
70976;BME280;58635;51.198;6.010;2024-01-25T00:15:44;102660.06;;;12.09;60.51
70976;BME280;58635;51.198;6.010;2024-01-25T00:18:09;102658.28;;;12.09;60.67
70976;BME280;58635;51.198;6.010;2024-01-25T00:20:34;102658.94;;;12.11;60.62
70976;BME280;58635;51.198;6.010;2024-01-25T00:23:00;102650.03;;;12.14;60.48
70976;BME280;58635;51.198;6.010;2024-01-25T00:25:25;102656.19;;;12.13;60.67
70976;BME280;58635;51.198;6.010;2024-01-25T00:27:52;102657.97;;;12.12;60.51
70976;BME280;58635;51.198;6.010;2024-01-25T00:30:17;102665.75;;;12.12;60.53
70976;BME280;58635;51.198;6.010;2024-01-25T00:32:42;102665.59;;;12.14;60.17
70976;BME280;58635;51.198;6.010;2024-01-25T00:35:08;102651.81;;;12.13;60.80
70976;BME280;58635;51.198;6.010;2024-01-25T00:37:36;102656.03;;;12.14;60.55
70976;BME280;58635;51.198;6.010;2024-01-25T00:40:02;102660.56;;;12.12;60.57
70976;BME280;58635;51.198;6.010;2024-01-25T00:42:28;102664.28;;;12.10;60.61
70976;BME280;58635;51.198;6.010;2024-01-25T00:44:55;102667.84;;;12.09;60.56
70976;BME280;58635;51.198;6.010;2024-01-25T00:47:21;102673.19;;;12.07;60.90
70976;BME280;58635;51.198;6.010;2024-01-25T00:49:47;102662.97;;;12.06;61.00
70976;BME280;58635;51.198;6.010;2024-01-25T00:52:13;102668.00;;;12.07;61.06
70976;BME280;58635;51.198;6.010;2024-01-25T00:54:38;102663.78;;;12.06;60.95
70976;BME280;58635;51.198;6.010;2024-01-25T00:57:04;102663.94;;;12.05;60.97
70976;BME280;58635;51.198;6.010;2024-01-25T00:59:29;102660.84;;;12.01;60.88
70976;BME280;58635;51.198;6.010;2024-01-25T01:01:55;102664.56;;;11.98;60.96
70976;BME280;58635;51.198;6.010;2024-01-25T01:04:23;102665.84;;;11.94;61.19
70976;BME280;58635;51.198;6.010;2024-01-25T01:06:49;102667.78;;;11.92;61.15
70976;BME280;58635;51.198;6.010;2024-01-25T01:09:14;102664.69;;;11.89;61.26
70976;BME280;58635;51.198;6.010;2024-01-25T01:11:40;102666.47;;;11.88;61.37
70976;BME280;58635;51.198;6.010;2024-01-25T01:14:05;102663.22;;;11.86;61.21
70976;BME280;58635;51.198;6.010;2024-01-25T01:16:30;102666.13;;;11.83;61.29
70976;BME280;58635;51.198;6.010;2024-01-25T01:18:58;102664.50;;;11.82;61.32
70976;BME280;58635;51.198;6.010;2024-01-25T01:21:30;102658.66;;;11.80;61.32
70976;BME280;58635;51.198;6.010;2024-01-25T01:23:56;102670.13;;;11.78;61.48
70976;BME280;58635;51.198;6.010;2024-01-25T01:26:21;102662.50;;;11.76;61.50
70976;BME280;58635;51.198;6.010;2024-01-25T01:28:46;102662.00;;;11.73;61.39
70976;BME280;58635;51.198;6.010;2024-01-25T01:31:12;102664.06;;;11.69;61.78
70976;BME280;58635;51.198;6.010;2024-01-25T01:33:38;102671.84;;;11.69;61.61
70976;BME280;58635;51.198;6.010;2024-01-25T01:36:03;102664.22;;;11.67;61.70
70976;BME280;58635;51.198;6.010;2024-01-25T01:38:28;102672.31;;;11.64;61.67
70976;BME280;58635;51.198;6.010;2024-01-25T01:40:54;102666.50;;;11.62;61.60
70976;BME280;58635;51.198;6.010;2024-01-25T01:43:20;102671.97;;;11.59;61.72
70976;BME280;58635;51.198;6.010;2024-01-25T01:45:45;102678.78;;;11.60;62.01
70976;BME280;58635;51.198;6.010;2024-01-25T01:48:12;102680.69;;;11.58;62.06
70976;BME280;58635;51.198;6.010;2024-01-25T01:50:37;102679.88;;;11.58;62.00
70976;BME280;58635;51.198;6.010;2024-01-25T01:53:03;102691.22;;;11.57;61.91
70976;BME280;58635;51.198;6.010;2024-01-25T01:55:30;102691.53;;;11.54;61.99
70976;BME280;58635;51.198;6.010;2024-01-25T01:57:56;102691.53;;;11.54;61.91
70976;BME280;58635;51.198;6.010;2024-01-25T02:00:21;102700.94;;;11.55;61.97
70976;BME280;58635;51.198;6.010;2024-01-25T02:02:47;102697.69;;;11.53;62.04
70976;BME280;58635;51.198;6.010;2024-01-25T02:05:13;102697.69;;;11.53;61.91
70976;BME280;58635;51.198;6.010;2024-01-25T02:07:39;102699.63;;;11.51;61.99
70976;BME280;58635;51.198;6.010;2024-01-25T02:10:06;102704.16;;;11.49;61.83
70976;BME280;58635;51.198;6.010;2024-01-25T02:12:31;102700.88;;;11.47;61.83
70976;BME280;58635;51.198;6.010;2024-01-25T02:14:57;102706.22;;;11.45;61.88
70976;BME280;58635;51.198;6.010;2024-01-25T02:17:22;102715.91;;;11.43;61.79
70976;BME280;58635;51.198;6.010;2024-01-25T02:19:48;102720.59;;;11.39;62.04
70976;BME280;58635;51.198;6.010;2024-01-25T02:22:16;102714.75;;;11.37;61.90
70976;BME280;58635;51.198;6.010;2024-01-25T02:24:42;102720.06;;;11.36;61.76
70976;BME280;58635;51.198;6.010;2024-01-25T02:27:07;102724.75;;;11.32;61.82
70976;BME280;58635;51.198;6.010;2024-01-25T02:29:32;102723.94;;;11.32;61.91
70976;BME280;58635;51.198;6.010;2024-01-25T02:31:58;102716.63;;;11.27;61.83
70976;BME280;58635;51.198;6.010;2024-01-25T02:34:23;102721.00;;;11.27;62.04
70976;BME280;58635;51.198;6.010;2024-01-25T02:36:48;102729.03;;;11.24;61.86
70976;BME280;58635;51.198;6.010;2024-01-25T02:39:14;102726.59;;;11.22;62.03
70976;BME280;58635;51.198;6.010;2024-01-25T02:41:39;102736.31;;;11.20;62.07
70976;BME280;58635;51.198;6.010;2024-01-25T02:44:04;102730.31;;;11.20;62.07
70976;BME280;58635;51.198;6.010;2024-01-25T02:46:30;102718.63;;;11.16;61.87
70976;BME280;58635;51.198;6.010;2024-01-25T02:48:55;102730.94;;;11.13;62.17
70976;BME280;58635;51.198;6.010;2024-01-25T02:51:20;102739.63;;;11.12;61.95
70976;BME280;58635;51.198;6.010;2024-01-25T02:53:46;102744.00;;;11.12;62.24
70976;BME280;58635;51.198;6.010;2024-01-25T02:56:11;102738.97;;;11.10;62.11
70976;BME280;58635;51.198;6.010;2024-01-25T02:58:36;102736.53;;;11.09;62.22
70976;BME280;58635;51.198;6.010;2024-01-25T03:01:02;102743.63;;;11.07;62.21
70976;BME280;58635;51.198;6.010;2024-01-25T03:03:27;102738.63;;;11.05;62.40
70976;BME280;58635;51.198;6.010;2024-01-25T03:05:53;102739.72;;;11.03;62.54
70976;BME280;58635;51.198;6.010;2024-01-25T03:08:18;102746.00;;;11.00;62.50
70976;BME280;58635;51.198;6.010;2024-01-25T03:10:43;102739.34;;;10.98;62.42
70976;BME280;58635;51.198;6.010;2024-01-25T03:13:09;102756.16;;;10.94;62.63
70976;BME280;58635;51.198;6.010;2024-01-25T03:15:34;102751.94;;;10.93;62.63
70976;BME280;58635;51.198;6.010;2024-01-25T03:18:01;102752.75;;;10.93;62.59
70976;BME280;58635;51.198;6.010;2024-01-25T03:20:26;102752.09;;;10.91;62.80
70976;BME280;58635;51.198;6.010;2024-01-25T03:22:51;102747.97;;;10.89;62.72
70976;BME280;58635;51.198;6.010;2024-01-25T03:25:17;102750.56;;;10.89;62.73
70976;BME280;58635;51.198;6.010;2024-01-25T03:27:42;102741.19;;;10.88;62.97
70976;BME280;58635;51.198;6.010;2024-01-25T03:30:08;102749.09;;;10.86;62.71
70976;BME280;58635;51.198;6.010;2024-01-25T03:32:34;102753.47;;;10.86;62.80
70976;BME280;58635;51.198;6.010;2024-01-25T03:34:59;102753.63;;;10.84;63.05
70976;BME280;58635;51.198;6.010;2024-01-25T03:37:24;102753.63;;;10.84;62.79
70976;BME280;58635;51.198;6.010;2024-01-25T03:39:50;102752.94;;;10.82;62.94
70976;BME280;58635;51.198;6.010;2024-01-25T03:42:15;102741.78;;;10.81;62.93
70976;BME280;58635;51.198;6.010;2024-01-25T03:44:40;102747.78;;;10.82;63.10
70976;BME280;58635;51.198;6.010;2024-01-25T03:47:07;102758.28;;;10.80;62.77
70976;BME280;58635;51.198;6.010;2024-01-25T03:49:32;102761.84;;;10.79;62.86
70976;BME280;58635;51.198;6.010;2024-01-25T03:51:58;102760.31;;;10.77;62.71
70976;BME280;58635;51.198;6.010;2024-01-25T03:54:23;102761.28;;;10.76;62.83
70976;BME280;58635;51.198;6.010;2024-01-25T03:56:48;102744.59;;;10.70;62.85
70976;BME280;58635;51.198;6.010;2024-01-25T03:59:14;102745.03;;;10.66;62.89
70976;BME280;58635;51.198;6.010;2024-01-25T04:01:46;102755.66;;;10.63;62.88
70976;BME280;58635;51.198;6.010;2024-01-25T04:04:13;102760.97;;;10.61;63.00
70976;BME280;58635;51.198;6.010;2024-01-25T04:06:44;102750.63;;;10.61;62.98
70976;BME280;58635;51.198;6.010;2024-01-25T04:09:10;102744.63;;;10.61;62.96
70976;BME280;58635;51.198;6.010;2024-01-25T04:11:37;102745.75;;;10.58;63.01
70976;BME280;58635;51.198;6.010;2024-01-25T04:14:03;102744.94;;;10.58;62.98
70976;BME280;58635;51.198;6.010;2024-01-25T04:16:29;102745.91;;;10.57;63.10
70976;BME280;58635;51.198;6.010;2024-01-25T04:19:02;102751.34;;;10.53;62.94
70976;BME280;58635;51.198;6.010;2024-01-25T04:21:27;102753.25;;;10.51;62.99
70976;BME280;58635;51.198;6.010;2024-01-25T04:23:53;102763.59;;;10.51;63.05
70976;BME280;58635;51.198;6.010;2024-01-25T04:26:18;102755.34;;;10.48;63.13
70976;BME280;58635;51.198;6.010;2024-01-25T04:28:44;102752.75;;;10.48;63.01
70976;BME280;58635;51.198;6.010;2024-01-25T04:31:09;102757.91;;;10.48;62.97
70976;BME280;58635;51.198;6.010;2024-01-25T04:33:35;102747.72;;;10.46;62.87
70976;BME280;58635;51.198;6.010;2024-01-25T04:36:00;102749.50;;;10.46;62.75
70976;BME280;58635;51.198;6.010;2024-01-25T04:38:25;102748.00;;;10.43;62.84
70976;BME280;58635;51.198;6.010;2024-01-25T04:40:51;102744.63;;;10.43;62.66
70976;BME280;58635;51.198;6.010;2024-01-25T04:43:16;102741.31;;;10.41;62.77
70976;BME280;58635;51.198;6.010;2024-01-25T04:45:42;102734.53;;;10.40;62.74
70976;BME280;58635;51.198;6.010;2024-01-25T04:48:07;102725.97;;;10.39;62.78
70976;BME280;58635;51.198;6.010;2024-01-25T04:50:33;102729.66;;;10.37;62.56
70976;BME280;58635;51.198;6.010;2024-01-25T04:52:58;102733.34;;;10.34;62.71
70976;BME280;58635;51.198;6.010;2024-01-25T04:55:23;102738.66;;;10.33;62.96
70976;BME280;58635;51.198;6.010;2024-01-25T04:57:49;102734.59;;;10.30;62.61
70976;BME280;58635;51.198;6.010;2024-01-25T05:00:18;102735.53;;;10.29;62.66
70976;BME280;58635;51.198;6.010;2024-01-25T05:02:44;102740.03;;;10.27;62.91
70976;BME280;58635;51.198;6.010;2024-01-25T05:05:09;102741.97;;;10.25;62.70
70976;BME280;58635;51.198;6.010;2024-01-25T05:07:35;102737.91;;;10.22;62.70
70976;BME280;58635;51.198;6.010;2024-01-25T05:10:00;102744.97;;;10.20;62.73
70976;BME280;58635;51.198;6.010;2024-01-25T05:12:25;102739.13;;;10.18;62.95
70976;BME280;58635;51.198;6.010;2024-01-25T05:14:51;102743.59;;;10.16;63.03
70976;BME280;58635;51.198;6.010;2024-01-25T05:17:16;102742.09;;;10.14;63.15
70976;BME280;58635;51.198;6.010;2024-01-25T05:19:41;102730.97;;;10.13;63.10
70976;BME280;58635;51.198;6.010;2024-01-25T05:22:07;102747.44;;;10.12;63.16
70976;BME280;58635;51.198;6.010;2024-01-25T05:24:33;102748.53;;;10.10;63.17
70976;BME280;58635;51.198;6.010;2024-01-25T05:26:59;102740.78;;;10.10;63.30
70976;BME280;58635;51.198;6.010;2024-01-25T05:29:24;102741.72;;;10.09;63.22
70976;BME280;58635;51.198;6.010;2024-01-25T05:31:49;102744.19;;;10.10;63.30
70976;BME280;58635;51.198;6.010;2024-01-25T05:34:15;102753.56;;;10.11;63.52
70976;BME280;58635;51.198;6.010;2024-01-25T05:36:40;102760.66;;;10.09;63.30
70976;BME280;58635;51.198;6.010;2024-01-25T05:39:07;102764.03;;;10.10;63.61
70976;BME280;58635;51.198;6.010;2024-01-25T05:41:33;102754.66;;;10.09;63.38
70976;BME280;58635;51.198;6.010;2024-01-25T05:43:59;102758.06;;;10.09;63.52
70976;BME280;58635;51.198;6.010;2024-01-25T05:46:24;102766.78;;;10.08;63.46
70976;BME280;58635;51.198;6.010;2024-01-25T05:48:50;102769.50;;;10.07;63.41
70976;BME280;58635;51.198;6.010;2024-01-25T05:51:15;102765.25;;;10.06;63.39
70976;BME280;58635;51.198;6.010;2024-01-25T05:53:40;102757.66;;;10.04;63.31
70976;BME280;58635;51.198;6.010;2024-01-25T05:56:06;102761.34;;;10.02;63.49
70976;BME280;58635;51.198;6.010;2024-01-25T05:58:31;102775.38;;;9.99;63.37
70976;BME280;58635;51.198;6.010;2024-01-25T06:00:57;102778.25;;;9.96;63.37
70976;BME280;58635;51.198;6.010;2024-01-25T06:03:22;102772.25;;;9.95;63.33
70976;BME280;58635;51.198;6.010;2024-01-25T06:05:47;102765.56;;;9.93;63.30
70976;BME280;58635;51.198;6.010;2024-01-25T06:08:13;102769.25;;;9.90;63.25
70976;BME280;58635;51.198;6.010;2024-01-25T06:10:38;102768.59;;;9.88;63.28
70976;BME280;58635;51.198;6.010;2024-01-25T06:13:05;102776.50;;;9.87;63.25
70976;BME280;58635;51.198;6.010;2024-01-25T06:15:30;102773.25;;;9.85;63.39
70976;BME280;58635;51.198;6.010;2024-01-25T06:17:56;102788.88;;;9.83;63.31
70976;BME280;58635;51.198;6.010;2024-01-25T06:20:22;102792.41;;;9.82;63.49
70976;BME280;58635;51.198;6.010;2024-01-25T06:22:47;102786.56;;;9.80;63.58
70976;BME280;58635;51.198;6.010;2024-01-25T06:25:13;102779.75;;;9.79;63.55
70976;BME280;58635;51.198;6.010;2024-01-25T06:27:38;102769.56;;;9.78;63.49
70976;BME280;58635;51.198;6.010;2024-01-25T06:30:04;102765.34;;;9.77;63.60
70976;BME280;58635;51.198;6.010;2024-01-25T06:32:29;102771.47;;;9.76;63.66
70976;BME280;58635;51.198;6.010;2024-01-25T06:34:55;102773.25;;;9.75;63.56
70976;BME280;58635;51.198;6.010;2024-01-25T06:37:20;102765.78;;;9.72;63.58
70976;BME280;58635;51.198;6.010;2024-01-25T06:39:45;102767.66;;;9.70;63.68
70976;BME280;58635;51.198;6.010;2024-01-25T06:42:11;102771.34;;;9.67;63.54
70976;BME280;58635;51.198;6.010;2024-01-25T06:44:36;102775.03;;;9.65;63.67
70976;BME280;58635;51.198;6.010;2024-01-25T06:47:02;102782.94;;;9.63;63.60
70976;BME280;58635;51.198;6.010;2024-01-25T06:49:28;102792.72;;;9.60;63.60
70976;BME280;58635;51.198;6.010;2024-01-25T06:51:53;102787.81;;;9.57;63.58
70976;BME280;58635;51.198;6.010;2024-01-25T06:54:18;102795.69;;;9.55;63.64
70976;BME280;58635;51.198;6.010;2024-01-25T06:56:44;102800.19;;;9.53;63.64
70976;BME280;58635;51.198;6.010;2024-01-25T06:59:09;102795.44;;;9.49;63.56
70976;BME280;58635;51.198;6.010;2024-01-25T07:01:34;102794.88;;;9.45;63.43
70976;BME280;58635;51.198;6.010;2024-01-25T07:04:00;102791.50;;;9.45;63.47
70976;BME280;58635;51.198;6.010;2024-01-25T07:06:26;102801.00;;;9.44;63.76
70976;BME280;58635;51.198;6.010;2024-01-25T07:08:52;102802.91;;;9.42;63.54
70976;BME280;58635;51.198;6.010;2024-01-25T07:11:18;102808.50;;;9.37;63.81
70976;BME280;58635;51.198;6.010;2024-01-25T07:13:44;102815.28;;;9.38;63.73
70976;BME280;58635;51.198;6.010;2024-01-25T07:16:09;102814.63;;;9.36;63.84
70976;BME280;58635;51.198;6.010;2024-01-25T07:18:34;102818.16;;;9.35;63.91
70976;BME280;58635;51.198;6.010;2024-01-25T07:21:00;102812.28;;;9.33;63.89
70976;BME280;58635;51.198;6.010;2024-01-25T07:23:25;102814.06;;;9.33;63.96
70976;BME280;58635;51.198;6.010;2024-01-25T07:25:52;102820.16;;;9.32;63.81
70976;BME280;58635;51.198;6.010;2024-01-25T07:28:20;102821.94;;;9.31;63.92
70976;BME280;58635;51.198;6.010;2024-01-25T07:30:49;102822.06;;;9.30;64.01
70976;BME280;58635;51.198;6.010;2024-01-25T07:33:15;102826.56;;;9.28;64.11
70976;BME280;58635;51.198;6.010;2024-01-25T07:35:41;102819.63;;;9.28;64.12
70976;BME280;58635;51.198;6.010;2024-01-25T07:38:14;102818.69;;;9.29;64.02
70976;BME280;58635;51.198;6.010;2024-01-25T07:40:40;102815.28;;;9.29;64.19
70976;BME280;58635;51.198;6.010;2024-01-25T07:43:05;102821.25;;;9.29;63.97
70976;BME280;58635;51.198;6.010;2024-01-25T07:45:31;102825.75;;;9.27;64.00
70976;BME280;58635;51.198;6.010;2024-01-25T07:47:57;102826.28;;;9.31;64.19
70976;BME280;58635;51.198;6.010;2024-01-25T07:50:22;102832.25;;;9.31;64.06
70976;BME280;58635;51.198;6.010;2024-01-25T07:52:47;102841.50;;;9.34;64.12
70976;BME280;58635;51.198;6.010;2024-01-25T07:55:15;102842.22;;;9.36;64.32
70976;BME280;58635;51.198;6.010;2024-01-25T07:57:40;102845.19;;;9.41;64.29
70976;BME280;58635;51.198;6.010;2024-01-25T08:00:06;102843.97;;;9.45;64.21
70976;BME280;58635;51.198;6.010;2024-01-25T08:02:32;102834.88;;;9.51;64.27
70976;BME280;58635;51.198;6.010;2024-01-25T08:04:58;102833.78;;;9.53;64.21
70976;BME280;58635;51.198;6.010;2024-01-25T08:07:23;102836.91;;;9.57;64.24
70976;BME280;58635;51.198;6.010;2024-01-25T08:09:49;102830.53;;;9.61;64.05
70976;BME280;58635;51.198;6.010;2024-01-25T08:12:17;102831.72;;;9.66;64.22
70976;BME280;58635;51.198;6.010;2024-01-25T08:14:42;102834.84;;;9.70;64.09
70976;BME280;58635;51.198;6.010;2024-01-25T08:17:09;102830.25;;;9.74;64.13
70976;BME280;58635;51.198;6.010;2024-01-25T08:19:34;102827.38;;;9.77;64.14
70976;BME280;58635;51.198;6.010;2024-01-25T08:22:00;102837.44;;;9.80;64.07
70976;BME280;58635;51.198;6.010;2024-01-25T08:24:25;102835.50;;;9.82;64.20
70976;BME280;58635;51.198;6.010;2024-01-25T08:26:51;102835.41;;;9.83;63.95
70976;BME280;58635;51.198;6.010;2024-01-25T08:29:16;102830.91;;;9.85;64.02
70976;BME280;58635;51.198;6.010;2024-01-25T08:31:41;102824.66;;;9.88;64.09
70976;BME280;58635;51.198;6.010;2024-01-25T08:34:07;102828.84;;;9.89;64.07
70976;BME280;58635;51.198;6.010;2024-01-25T08:36:32;102824.66;;;9.88;64.07
70976;BME280;58635;51.198;6.010;2024-01-25T08:38:57;102827.09;;;9.89;63.94
70976;BME280;58635;51.198;6.010;2024-01-25T08:41:23;102821.78;;;9.91;64.23
70976;BME280;58635;51.198;6.010;2024-01-25T08:43:49;102831.97;;;9.92;64.27
70976;BME280;58635;51.198;6.010;2024-01-25T08:46:14;102828.16;;;9.96;63.98
70976;BME280;58635;51.198;6.010;2024-01-25T08:48:40;102830.47;;;10.00;64.27
70976;BME280;58635;51.198;6.010;2024-01-25T08:51:06;102828.28;;;10.05;64.00
70976;BME280;58635;51.198;6.010;2024-01-25T08:53:31;102830.72;;;10.06;64.07
70976;BME280;58635;51.198;6.010;2024-01-25T08:55:56;102825.44;;;10.08;64.07
70976;BME280;58635;51.198;6.010;2024-01-25T08:58:22;102814.66;;;10.12;64.12
70976;BME280;58635;51.198;6.010;2024-01-25T09:00:48;102807.56;;;10.14;64.22
70976;BME280;58635;51.198;6.010;2024-01-25T09:03:14;102814.91;;;10.19;64.00
70976;BME280;58635;51.198;6.010;2024-01-25T09:05:40;102824.88;;;10.23;63.98
70976;BME280;58635;51.198;6.010;2024-01-25T09:08:11;102826.88;;;10.30;63.84
70976;BME280;58635;51.198;6.010;2024-01-25T09:10:36;102850.03;;;10.31;63.88
70976;BME280;58635;51.198;6.010;2024-01-25T09:13:02;102848.41;;;10.30;64.03
70976;BME280;58635;51.198;6.010;2024-01-25T09:15:27;102852.63;;;10.31;64.09
70976;BME280;58635;51.198;6.010;2024-01-25T09:17:52;102845.53;;;10.33;64.08
70976;BME280;58635;51.198;6.010;2024-01-25T09:20:18;102840.06;;;10.36;63.85
70976;BME280;58635;51.198;6.010;2024-01-25T09:22:43;102837.75;;;10.43;64.15
70976;BME280;58635;51.198;6.010;2024-01-25T09:25:09;102832.28;;;10.46;63.95
70976;BME280;58635;51.198;6.010;2024-01-25T09:27:34;102825.19;;;10.48;64.05
70976;BME280;58635;51.198;6.010;2024-01-25T09:30:00;102836.34;;;10.48;63.87
70976;BME280;58635;51.198;6.010;2024-01-25T09:32:25;102830.34;;;10.48;64.06
70976;BME280;58635;51.198;6.010;2024-01-25T09:34:50;102827.47;;;10.51;64.05
70976;BME280;58635;51.198;6.010;2024-01-25T09:37:16;102833.06;;;10.56;63.89
70976;BME280;58635;51.198;6.010;2024-01-25T09:39:42;102837.94;;;10.59;64.15
70976;BME280;58635;51.198;6.010;2024-01-25T09:42:08;102837.34;;;10.65;64.11
70976;BME280;58635;51.198;6.010;2024-01-25T09:44:34;102830.00;;;10.70;63.83
70976;BME280;58635;51.198;6.010;2024-01-25T09:47:03;102828.59;;;10.76;63.88
70976;BME280;58635;51.198;6.010;2024-01-25T09:49:30;102821.38;;;10.79;63.88
70976;BME280;58635;51.198;6.010;2024-01-25T09:51:56;102828.69;;;10.84;63.88
70976;BME280;58635;51.198;6.010;2024-01-25T09:54:23;102833.41;;;10.89;63.99
70976;BME280;58635;51.198;6.010;2024-01-25T09:56:50;102835.44;;;10.95;63.75
70976;BME280;58635;51.198;6.010;2024-01-25T09:59:16;102835.13;;;10.98;63.86
70976;BME280;58635;51.198;6.010;2024-01-25T10:01:42;102838.13;;;11.03;63.71
70976;BME280;58635;51.198;6.010;2024-01-25T10:04:08;102832.66;;;11.06;63.67
70976;BME280;58635;51.198;6.010;2024-01-25T10:06:33;102820.38;;;11.08;63.59
70976;BME280;58635;51.198;6.010;2024-01-25T10:08:59;102827.16;;;11.09;63.90
70976;BME280;58635;51.198;6.010;2024-01-25T10:11:24;102830.56;;;11.09;64.02
70976;BME280;58635;51.198;6.010;2024-01-25T10:13:50;102826.50;;;11.07;63.90
70976;BME280;58635;51.198;6.010;2024-01-25T10:16:19;102838.34;;;11.09;63.89
70976;BME280;58635;51.198;6.010;2024-01-25T10:18:47;102844.56;;;11.17;63.86
70976;BME280;58635;51.198;6.010;2024-01-25T10:21:14;102847.53;;;11.22;63.87
70976;BME280;58635;51.198;6.010;2024-01-25T10:23:40;102851.19;;;11.29;63.76
70976;BME280;58635;51.198;6.010;2024-01-25T10:26:09;102847.00;;;11.36;63.75
70976;BME280;58635;51.198;6.010;2024-01-25T10:28:35;102843.03;;;11.41;63.64
70976;BME280;58635;51.198;6.010;2024-01-25T10:31:02;102840.78;;;11.47;63.32
70976;BME280;58635;51.198;6.010;2024-01-25T10:33:30;102830.16;;;11.50;63.36
70976;BME280;58635;51.198;6.010;2024-01-25T10:35:56;102842.00;;;11.52;63.43
70976;BME280;58635;51.198;6.010;2024-01-25T10:38:31;102832.44;;;11.53;63.23
70976;BME280;58635;51.198;6.010;2024-01-25T10:41:02;102830.19;;;11.58;63.47
70976;BME280;58635;51.198;6.010;2024-01-25T10:43:29;102831.91;;;11.67;63.43
70976;BME280;58635;51.198;6.010;2024-01-25T10:45:57;102838.13;;;11.74;63.10
70976;BME280;58635;51.198;6.010;2024-01-25T10:48:27;102839.59;;;11.77;63.13
70976;BME280;58635;51.198;6.010;2024-01-25T10:50:54;102840.06;;;11.72;63.14
70976;BME280;58635;51.198;6.010;2024-01-25T10:53:21;102830.13;;;11.67;63.06
70976;BME280;58635;51.198;6.010;2024-01-25T10:55:47;102816.34;;;11.67;62.84
70976;BME280;58635;51.198;6.010;2024-01-25T10:58:16;102811.16;;;11.67;62.90
70976;BME280;58635;51.198;6.010;2024-01-25T11:00:41;102804.03;;;11.69;63.24
70976;BME280;58635;51.198;6.010;2024-01-25T11:03:07;102807.03;;;11.74;62.97
70976;BME280;58635;51.198;6.010;2024-01-25T11:05:32;102798.94;;;11.77;62.98
70976;BME280;58635;51.198;6.010;2024-01-25T11:07:58;102800.13;;;11.83;62.75
70976;BME280;58635;51.198;6.010;2024-01-25T11:10:25;102786.72;;;11.87;62.71
70976;BME280;58635;51.198;6.010;2024-01-25T11:12:58;102785.44;;;11.91;62.59
70976;BME280;58635;51.198;6.010;2024-01-25T11:15:32;102782.41;;;11.96;62.29
70976;BME280;58635;51.198;6.010;2024-01-25T11:17:58;102776.53;;;11.94;62.44
70976;BME280;58635;51.198;6.010;2024-01-25T11:20:24;102777.72;;;11.99;62.42
70976;BME280;58635;51.198;6.010;2024-01-25T11:23:02;102776.91;;;11.99;62.08
70976;BME280;58635;51.198;6.010;2024-01-25T11:25:32;102768.31;;;11.98;62.28
70976;BME280;58635;51.198;6.010;2024-01-25T11:27:59;102762.00;;;12.01;62.13
70976;BME280;58635;51.198;6.010;2024-01-25T11:30:25;102761.03;;;12.02;62.14
70976;BME280;58635;51.198;6.010;2024-01-25T11:32:51;102760.38;;;12.00;62.16
70976;BME280;58635;51.198;6.010;2024-01-25T11:35:17;102749.63;;;11.95;62.05
70976;BME280;58635;51.198;6.010;2024-01-25T11:37:45;102752.91;;;11.97;62.35
70976;BME280;58635;51.198;6.010;2024-01-25T11:40:12;102740.28;;;12.02;62.30
70976;BME280;58635;51.198;6.010;2024-01-25T11:42:39;102736.28;;;12.08;62.32
70976;BME280;58635;51.198;6.010;2024-01-25T11:45:08;102733.03;;;12.14;62.26
70976;BME280;58635;51.198;6.010;2024-01-25T11:47:34;102732.09;;;12.23;62.07
70976;BME280;58635;51.198;6.010;2024-01-25T11:50:00;102719.16;;;12.31;62.02
70976;BME280;58635;51.198;6.010;2024-01-25T11:52:26;102707.81;;;12.40;61.94
70976;BME280;58635;51.198;6.010;2024-01-25T11:54:51;102726.84;;;12.49;61.71
70976;BME280;58635;51.198;6.010;2024-01-25T11:57:17;102708.19;;;12.53;61.60
70976;BME280;58635;51.198;6.010;2024-01-25T11:59:43;102717.78;;;12.61;61.31
70976;BME280;58635;51.198;6.010;2024-01-25T12:02:12;102719.44;;;12.70;61.27
70976;BME280;58635;51.198;6.010;2024-01-25T12:04:37;102714.88;;;12.72;61.02
70976;BME280;58635;51.198;6.010;2024-01-25T12:07:03;102706.13;;;12.73;61.07
70976;BME280;58635;51.198;6.010;2024-01-25T12:09:28;102713.56;;;12.76;60.72
70976;BME280;58635;51.198;6.010;2024-01-25T12:11:54;102720.56;;;12.76;60.80
70976;BME280;58635;51.198;6.010;2024-01-25T12:14:20;102721.19;;;12.78;60.95
70976;BME280;58635;51.198;6.010;2024-01-25T12:16:45;102730.66;;;12.79;60.88
70976;BME280;58635;51.198;6.010;2024-01-25T12:19:10;102716.53;;;12.81;60.83
70976;BME280;58635;51.198;6.010;2024-01-25T12:21:36;102699.81;;;12.84;60.58
70976;BME280;58635;51.198;6.010;2024-01-25T12:24:02;102702.88;;;12.87;60.63
70976;BME280;58635;51.198;6.010;2024-01-25T12:26:27;102712.13;;;12.90;60.56
70976;BME280;58635;51.198;6.010;2024-01-25T12:28:55;102708.41;;;12.93;60.47
70976;BME280;58635;51.198;6.010;2024-01-25T12:31:21;102701.44;;;12.93;60.45
70976;BME280;58635;51.198;6.010;2024-01-25T12:33:46;102702.09;;;12.95;60.46
70976;BME280;58635;51.198;6.010;2024-01-25T12:36:12;102698.50;;;12.96;60.17
70976;BME280;58635;51.198;6.010;2024-01-25T12:38:39;102687.78;;;12.99;60.46
70976;BME280;58635;51.198;6.010;2024-01-25T12:41:04;102677.56;;;13.06;60.17
70976;BME280;58635;51.198;6.010;2024-01-25T12:43:30;102669.59;;;13.07;59.97
70976;BME280;58635;51.198;6.010;2024-01-25T12:45:55;102664.72;;;13.12;60.07